Time;durP1;ratioP1;P1;durP2;ratioP2;P2;SDS_P1;SDS_P2;PMS_P1;PMS_P2;Temp;Humidity;BMP_temperature;BMP_pressure;BME280_temperature;BME280_humidity;BME280_pressure;Samples;Min_cycle;Max_cycle;Signal;HPM_P1;HPM_P2
2023/06/07 00:02:16;;;;;;;12.20;11.70;;;18.20;99.90;;;;;;4910625;29;21058;-83
2023/06/07 00:04:56;;;;;;;12.70;12.20;;;18.20;99.90;;;;;;4910750;29;20576;-82
2023/06/07 00:07:25;;;;;;;12.23;11.83;;;18.00;99.90;;;;;;4910246;29;21004;-82
2023/06/07 00:09:55;;;;;;;12.80;12.20;;;18.00;99.90;;;;;;4911008;29;20458;-82
2023/06/07 00:12:23;;;;;;;12.43;12.03;;;18.00;99.90;;;;;;4911452;29;20457;-82
2023/06/07 00:14:51;;;;;;;12.97;12.47;;;17.80;99.90;;;;;;4909999;29;20474;-82
2023/06/07 00:17:19;;;;;;;12.43;12.03;;;17.90;99.90;;;;;;4909724;29;21119;-82
2023/06/07 00:19:47;;;;;;;12.27;11.97;;;17.80;99.90;;;;;;4907842;29;21043;-82
2023/06/07 00:22:16;;;;;;;12.80;12.30;;;17.90;99.90;;;;;;4911021;29;20530;-82
2023/06/07 00:24:44;;;;;;;13.10;12.60;;;17.80;99.90;;;;;;4908381;29;20505;-82
2023/06/07 00:27:14;;;;;;;12.90;12.50;;;17.80;99.90;;;;;;4909754;29;20497;-82
2023/06/07 00:29:42;;;;;;;13.27;12.77;;;17.80;99.90;;;;;;4909224;29;20466;-82
2023/06/07 00:32:10;;;;;;;13.33;12.73;;;17.70;99.90;;;;;;4925595;29;20999;-83
2023/06/07 00:34:38;;;;;;;13.00;12.53;;;17.60;99.90;;;;;;4910587;29;20485;-84
2023/06/07 00:37:06;;;;;;;13.33;12.83;;;17.60;99.90;;;;;;4907200;29;20457;-82
2023/06/07 00:39:34;;;;;;;13.03;12.60;;;17.60;99.90;;;;;;4907612;29;20458;-84
2023/06/07 00:42:02;;;;;;;13.60;13.10;;;17.50;99.90;;;;;;4910113;29;20466;-82
2023/06/07 00:44:32;;;;;;;14.00;13.20;;;17.50;99.90;;;;;;4908510;29;20498;-84
2023/06/07 00:47:02;;;;;;;14.60;14.00;;;17.40;99.90;;;;;;4909901;29;20466;-82
2023/06/07 00:49:30;;;;;;;14.20;13.50;;;17.40;99.90;;;;;;4909754;29;20925;-82
2023/06/07 00:51:59;;;;;;;14.00;13.50;;;17.30;99.90;;;;;;4909240;29;20551;-82
2023/06/07 00:54:28;;;;;;;13.57;13.17;;;17.30;99.90;;;;;;4909811;29;21142;-84
2023/06/07 00:56:56;;;;;;;13.60;13.00;;;17.30;99.90;;;;;;4910823;29;20529;-83
2023/06/07 00:59:25;;;;;;;13.80;13.30;;;17.30;99.90;;;;;;4905530;29;20547;-82
2023/06/07 01:01:55;;;;;;;13.90;13.40;;;17.40;99.90;;;;;;4908731;29;20513;-83
2023/06/07 01:04:24;;;;;;;12.93;12.53;;;17.40;99.90;;;;;;4911252;29;20494;-83
2023/06/07 01:06:53;;;;;;;13.37;12.77;;;17.40;99.90;;;;;;4907727;29;20462;-81
2023/06/07 01:09:22;;;;;;;13.90;13.30;;;17.40;99.90;;;;;;4906399;29;20462;-81
2023/06/07 01:11:53;;;;;;;13.30;12.80;;;17.40;99.90;;;;;;4908604;29;20472;-82
2023/06/07 01:14:23;;;;;;;13.40;13.00;;;17.30;99.90;;;;;;4909281;29;20466;-83
2023/06/07 01:16:56;;;;;;;13.90;13.10;;;17.30;99.90;;;;;;4908108;29;20468;-83
2023/06/07 01:19:29;;;;;;;13.37;12.87;;;17.20;99.90;;;;;;4907097;29;20461;-82
2023/06/07 01:22:03;;;;;;;13.23;12.73;;;17.10;99.90;;;;;;4908542;29;20469;-83
2023/06/07 01:24:35;;;;;;;13.80;13.30;;;17.10;99.90;;;;;;4909537;29;20504;-83
2023/06/07 01:27:07;;;;;;;13.83;13.33;;;17.20;99.90;;;;;;4910035;29;20457;-82
2023/06/07 01:29:35;;;;;;;13.40;12.90;;;17.20;99.90;;;;;;4908752;29;20544;-82
2023/06/07 01:32:06;;;;;;;12.97;12.47;;;17.10;99.90;;;;;;4909549;29;21063;-83
2023/06/07 01:34:36;;;;;;;13.43;12.93;;;17.10;99.90;;;;;;4910229;29;20525;-82
2023/06/07 01:37:05;;;;;;;13.77;13.17;;;17.10;99.90;;;;;;4909551;29;20548;-83
2023/06/07 01:39:35;;;;;;;14.27;13.77;;;17.00;99.90;;;;;;4912119;29;20457;-84
2023/06/07 01:42:04;;;;;;;14.03;13.43;;;17.00;99.90;;;;;;4912790;29;20466;-82
2023/06/07 01:44:35;;;;;;;14.40;13.80;;;17.00;99.90;;;;;;4912405;29;21380;-82
2023/06/07 01:47:04;;;;;;;14.20;13.40;;;17.00;99.90;;;;;;4905486;29;20740;-82
2023/06/07 01:49:32;;;;;;;14.40;13.90;;;16.90;99.90;;;;;;4912867;29;20466;-82
2023/06/07 01:52:00;;;;;;;13.87;13.37;;;16.90;99.90;;;;;;4912503;29;20542;-82
2023/06/07 01:54:28;;;;;;;14.10;13.60;;;16.90;99.90;;;;;;4912301;29;20540;-83
2023/06/07 01:57:09;;;;;;;13.80;13.20;;;16.90;99.90;;;;;;4911266;29;20988;-82
2023/06/07 01:59:42;;;;;;;13.63;13.03;;;16.80;99.90;;;;;;4910431;29;20465;-83
2023/06/07 02:02:18;;;;;;;13.00;12.60;;;16.80;99.90;;;;;;4910029;29;20489;-82
2023/06/07 02:04:49;;;;;;;13.43;12.83;;;16.70;99.90;;;;;;4909819;29;20536;-83
2023/06/07 02:07:23;;;;;;;13.70;13.10;;;16.70;99.90;;;;;;4912565;29;20817;-82
2023/06/07 02:09:52;;;;;;;14.23;13.53;;;16.60;99.90;;;;;;4910091;29;20544;-83
2023/06/07 02:12:22;;;;;;;12.93;12.50;;;16.60;99.90;;;;;;4911884;29;21374;-83
2023/06/07 02:14:52;;;;;;;13.20;12.70;;;16.70;99.90;;;;;;4911770;29;20465;-82
2023/06/07 02:17:21;;;;;;;13.83;13.20;;;16.60;99.90;;;;;;4910851;29;20905;-82
2023/06/07 02:19:49;;;;;;;13.90;13.40;;;16.60;99.90;;;;;;4910605;29;20550;-83
2023/06/07 02:22:18;;;;;;;13.20;12.70;;;16.60;99.90;;;;;;4911489;29;20458;-83
2023/06/07 02:24:46;;;;;;;14.40;13.70;;;16.60;99.90;;;;;;4909837;29;20561;-82
2023/06/07 02:27:14;;;;;;;13.40;12.87;;;16.50;99.90;;;;;;4924748;29;20464;-83
2023/06/07 02:29:44;;;;;;;12.90;12.50;;;16.50;99.90;;;;;;4911421;29;20846;-83
2023/06/07 02:32:12;;;;;;;13.07;12.53;;;16.40;99.90;;;;;;4909973;29;20573;-83
2023/06/07 02:34:40;;;;;;;14.33;13.73;;;16.40;99.90;;;;;;4909823;29;20474;-84
2023/06/07 02:37:08;;;;;;;14.70;13.90;;;16.50;99.90;;;;;;4906399;29;20859;-83
2023/06/07 02:39:37;;;;;;;13.97;13.47;;;16.40;99.90;;;;;;4908931;29;20975;-83
2023/06/07 02:42:06;;;;;;;14.17;13.43;;;16.40;99.90;;;;;;4911122;29;20557;-83
2023/06/07 02:44:34;;;;;;;13.63;13.13;;;16.30;99.90;;;;;;4902386;29;20560;-82
2023/06/07 02:47:04;;;;;;;13.43;12.93;;;16.30;99.90;;;;;;4911089;29;21003;-82
2023/06/07 02:49:32;;;;;;;14.47;13.77;;;16.30;99.90;;;;;;4907722;29;20976;-83
2023/06/07 02:52:00;;;;;;;13.60;13.13;;;16.40;99.90;;;;;;4908584;29;21063;-82
2023/06/07 02:54:29;;;;;;;14.20;13.70;;;16.40;99.90;;;;;;4910536;29;20490;-83
2023/06/07 02:56:57;;;;;;;14.00;13.43;;;16.30;99.90;;;;;;4925157;29;20524;-83
2023/06/07 02:59:26;;;;;;;14.20;13.60;;;16.30;99.90;;;;;;4908206;29;20468;-83
2023/06/07 03:01:55;;;;;;;13.70;13.20;;;16.20;99.90;;;;;;4909931;29;20464;-83
2023/06/07 03:04:26;;;;;;;13.63;13.13;;;16.20;99.90;;;;;;4910177;29;20493;-83
2023/06/07 03:06:55;;;;;;;13.30;12.77;;;16.20;99.90;;;;;;4911117;29;20482;-82
2023/06/07 03:09:23;;;;;;;13.80;13.30;;;16.20;99.90;;;;;;4906293;29;20581;-83
2023/06/07 03:11:51;;;;;;;13.97;13.37;;;16.20;99.90;;;;;;4909921;29;20468;-83
2023/06/07 03:14:20;;;;;;;13.87;13.37;;;16.20;99.90;;;;;;4909611;29;20490;-82
2023/06/07 03:16:48;;;;;;;14.20;13.60;;;16.10;99.90;;;;;;4909480;29;20482;-83
2023/06/07 03:19:16;;;;;;;13.90;13.40;;;16.00;99.90;;;;;;4908128;29;21032;-83
2023/06/07 03:21:46;;;;;;;14.00;13.60;;;16.00;99.90;;;;;;4909901;29;20541;-81
2023/06/07 03:24:16;;;;;;;13.93;13.37;;;16.00;99.90;;;;;;4909109;29;20562;-83
2023/06/07 03:26:45;;;;;;;14.53;14.00;;;16.00;99.90;;;;;;4909533;29;21056;-82
2023/06/07 03:29:13;;;;;;;13.83;13.33;;;16.00;99.90;;;;;;4909683;29;20486;-82
2023/06/07 03:31:41;;;;;;;14.30;13.80;;;16.00;99.90;;;;;;4901803;29;20574;-82
2023/06/07 03:34:09;;;;;;;14.67;13.80;;;16.00;99.90;;;;;;4910026;29;20459;-83
2023/06/07 03:36:37;;;;;;;13.90;13.20;;;16.10;99.90;;;;;;4909468;29;20551;-82
2023/06/07 03:39:07;;;;;;;14.47;13.93;;;16.10;99.90;;;;;;4907775;29;20496;-82
2023/06/07 03:41:35;;;;;;;14.87;14.07;;;16.10;99.90;;;;;;4909353;29;20457;-83
2023/06/07 03:44:04;;;;;;;14.03;13.43;;;16.00;99.90;;;;;;4923241;29;20679;-82
2023/06/07 03:46:32;;;;;;;14.80;14.20;;;16.00;99.90;;;;;;4923015;29;20472;-82
2023/06/07 03:49:00;;;;;;;15.07;14.47;;;15.90;99.90;;;;;;4907765;29;20474;-83
2023/06/07 03:51:28;;;;;;;14.97;14.37;;;16.00;99.90;;;;;;4924048;29;20510;-83
2023/06/07 03:53:56;;;;;;;14.40;13.80;;;15.90;99.90;;;;;;4909386;29;20476;-83
2023/06/07 03:56:26;;;;;;;14.43;13.73;;;15.90;99.90;;;;;;4901635;29;20582;-82
2023/06/07 03:58:55;;;;;;;14.20;13.70;;;16.00;99.90;;;;;;4909085;29;20465;-83
2023/06/07 04:01:25;;;;;;;14.90;14.10;;;16.00;99.90;;;;;;4905414;29;20482;-82
2023/06/07 04:03:53;;;;;;;14.17;13.67;;;16.10;99.90;;;;;;4908827;29;20454;-82
2023/06/07 04:06:24;;;;;;;14.13;13.53;;;16.10;99.90;;;;;;4907802;29;20583;-83
2023/06/07 04:08:53;;;;;;;14.73;14.23;;;16.10;99.90;;;;;;4906974;29;20539;-83
2023/06/07 04:11:21;;;;;;;14.80;14.10;;;16.00;99.90;;;;;;4908809;29;20451;-82
2023/06/07 04:13:51;;;;;;;15.90;15.03;;;16.00;99.90;;;;;;4908949;29;20467;-83
2023/06/07 04:16:19;;;;;;;15.83;14.90;;;16.00;99.90;;;;;;4907905;29;20477;-83
2023/06/07 04:18:47;;;;;;;15.33;14.63;;;16.00;99.90;;;;;;4908255;29;20463;-83
2023/06/07 04:21:16;;;;;;;15.50;14.80;;;16.10;99.90;;;;;;4906831;29;20466;-83
2023/06/07 04:23:44;;;;;;;15.40;14.80;;;16.10;99.90;;;;;;4908409;29;21008;-83
2023/06/07 04:26:18;;;;;;;15.90;14.97;;;16.10;99.90;;;;;;4908930;29;20531;-82
2023/06/07 04:28:46;;;;;;;15.97;15.27;;;16.20;99.90;;;;;;4909093;29;20539;-83
2023/06/07 04:31:16;;;;;;;15.20;14.60;;;16.10;99.90;;;;;;4907155;29;20837;-82
2023/06/07 04:33:47;;;;;;;16.17;15.47;;;16.10;99.90;;;;;;4907683;29;20441;-83
2023/06/07 04:36:18;;;;;;;16.03;15.23;;;16.10;99.90;;;;;;4908528;29;20471;-84
2023/06/07 04:38:47;;;;;;;16.07;15.40;;;16.10;99.90;;;;;;4908025;29;20452;-84
2023/06/07 04:41:30;;;;;;;16.50;15.80;;;16.20;99.90;;;;;;4907256;29;20474;-83
2023/06/07 04:44:00;;;;;;;16.40;15.60;;;16.20;99.90;;;;;;4908086;29;21128;-83
2023/06/07 04:46:30;;;;;;;15.40;14.90;;;16.10;99.90;;;;;;4907572;29;20653;-83
2023/06/07 04:49:00;;;;;;;15.10;14.50;;;16.10;99.90;;;;;;4908576;29;20459;-82
2023/06/07 04:51:29;;;;;;;15.27;14.60;;;16.20;99.90;;;;;;4907876;29;20462;-83
2023/06/07 04:54:01;;;;;;;16.27;15.57;;;16.20;99.90;;;;;;4906925;29;20463;-83
2023/06/07 04:56:30;;;;;;;16.63;15.83;;;16.10;99.90;;;;;;4908283;29;20497;-83
2023/06/07 04:58:58;;;;;;;16.50;15.70;;;16.10;99.90;;;;;;4908353;29;20975;-83
2023/06/07 05:01:28;;;;;;;16.60;15.90;;;16.10;99.90;;;;;;4907329;29;20460;-83
2023/06/07 05:04:01;;;;;;;16.07;15.53;;;16.20;99.90;;;;;;4922099;29;20466;-83
2023/06/07 05:06:36;;;;;;;17.27;16.47;;;16.30;99.90;;;;;;4908317;29;20489;-83
2023/06/07 05:09:05;;;;;;;17.80;16.90;;;16.30;99.90;;;;;;4907593;29;20456;-83
2023/06/07 05:11:33;;;;;;;16.50;15.80;;;16.40;99.90;;;;;;4909893;29;20968;-83
2023/06/07 05:14:01;;;;;;;17.40;16.60;;;16.40;99.90;;;;;;4910561;29;20465;-84
2023/06/07 05:16:32;;;;;;;16.60;15.90;;;16.40;99.90;;;;;;4911572;29;20462;-83
2023/06/07 05:19:03;;;;;;;18.20;17.33;;;16.50;99.90;;;;;;4911341;29;20484;-83
2023/06/07 05:21:31;;;;;;;17.70;16.93;;;16.60;99.90;;;;;;4912071;29;21038;-83
2023/06/07 05:23:59;;;;;;;17.40;16.67;;;16.60;99.90;;;;;;4905574;29;20471;-82
2023/06/07 05:26:28;;;;;;;17.07;16.33;;;16.60;99.90;;;;;;4912597;29;21215;-83
2023/06/07 05:28:57;;;;;;;17.57;16.87;;;16.60;99.90;;;;;;4912214;29;21185;-84
2023/06/07 05:31:26;;;;;;;17.70;16.97;;;16.60;99.90;;;;;;4912256;29;20535;-82
2023/06/07 05:33:54;;;;;;;18.00;17.30;;;16.70;99.90;;;;;;4914398;29;20499;-83
2023/06/07 05:36:24;;;;;;;19.20;18.30;;;16.70;99.90;;;;;;4919139;29;20488;-81
2023/06/07 05:38:52;;;;;;;18.23;17.53;;;16.80;99.90;;;;;;4917076;29;20585;-82
2023/06/07 05:41:20;;;;;;;19.47;18.47;;;16.80;99.90;;;;;;4917445;29;20466;-81
2023/06/07 05:43:48;;;;;;;19.30;17.90;;;16.80;99.90;;;;;;4917943;29;20552;-82
2023/06/07 05:46:16;;;;;;;18.53;17.83;;;16.90;99.90;;;;;;4918362;29;20572;-83
2023/06/07 05:48:44;;;;;;;19.87;18.87;;;17.00;99.90;;;;;;4917360;29;20468;-82
2023/06/07 05:51:13;;;;;;;19.10;18.20;;;17.10;99.90;;;;;;4914931;29;20779;-82
2023/06/07 05:53:44;;;;;;;20.40;19.30;;;17.20;99.90;;;;;;4915954;29;21074;-82
2023/06/07 05:56:16;;;;;;;18.63;17.83;;;17.20;99.90;;;;;;4916063;29;20499;-83
2023/06/07 05:58:45;;;;;;;19.50;18.60;;;17.30;99.90;;;;;;4916038;29;20537;-84
2023/06/07 06:01:13;;;;;;;18.20;17.50;;;17.30;99.90;;;;;;4914933;29;20539;-83
2023/06/07 06:03:42;;;;;;;19.40;18.50;;;17.40;99.90;;;;;;4916364;29;20991;-83
2023/06/07 06:06:14;;;;;;;19.57;18.77;;;17.40;99.90;;;;;;4916031;29;20474;-82
2023/06/07 06:08:45;;;;;;;19.70;18.80;;;17.50;99.90;;;;;;4916902;29;20452;-82
2023/06/07 06:11:14;;;;;;;19.03;18.33;;;17.60;99.90;;;;;;4916616;29;20456;-83
2023/06/07 06:13:44;;;;;;;19.10;18.30;;;17.70;99.90;;;;;;4917637;29;20453;-82
2023/06/07 06:16:12;;;;;;;19.37;18.50;;;17.70;99.90;;;;;;4914471;29;20473;-82
2023/06/07 06:18:42;;;;;;;18.80;17.80;;;17.80;99.90;;;;;;4911453;29;20545;-83
2023/06/07 06:21:11;;;;;;;18.73;18.00;;;17.90;99.90;;;;;;4910980;29;21082;-84
2023/06/07 06:23:39;;;;;;;19.10;18.27;;;18.00;99.90;;;;;;4911249;29;20823;-82
2023/06/07 06:26:08;;;;;;;18.90;18.20;;;18.00;99.90;;;;;;4911538;29;20493;-83
2023/06/07 06:28:37;;;;;;;19.00;18.30;;;18.00;99.90;;;;;;4911749;29;20520;-83
2023/06/07 06:31:05;;;;;;;19.37;18.67;;;18.10;99.90;;;;;;4910676;29;20457;-84
2023/06/07 06:33:33;;;;;;;18.70;18.10;;;18.10;99.90;;;;;;4911717;29;20998;-83
2023/06/07 06:36:02;;;;;;;18.90;18.20;;;18.20;99.90;;;;;;4911165;29;20520;-82
2023/06/07 06:38:30;;;;;;;19.80;18.83;;;18.20;1.00;;;;;;4910564;29;21420;-83
2023/06/07 06:40:58;;;;;;;19.60;18.70;;;18.30;99.90;;;;;;4910431;29;20468;-82
2023/06/07 06:43:28;;;;;;;19.10;18.40;;;18.40;99.90;;;;;;4911226;29;20466;-83
2023/06/07 06:45:56;;;;;;;19.07;18.37;;;18.50;99.90;;;;;;4909938;29;20521;-83
2023/06/07 06:48:24;;;;;;;18.70;18.00;;;18.50;99.90;;;;;;4911023;29;20481;-82
2023/06/07 06:50:52;;;;;;;18.30;17.70;;;18.60;99.90;;;;;;4908479;29;21192;-81
2023/06/07 06:53:20;;;;;;;19.23;18.43;;;18.50;99.90;;;;;;4906557;29;20465;-82
2023/06/07 06:55:48;;;;;;;19.30;18.40;;;18.50;99.90;;;;;;4910491;29;20485;-83
2023/06/07 06:58:17;;;;;;;17.77;17.17;;;18.70;99.90;;;;;;4911568;29;20460;-83
2023/06/07 07:00:47;;;;;;;17.93;17.20;;;18.70;99.90;;;;;;4904355;29;20541;-82
2023/06/07 07:03:15;;;;;;;17.97;17.27;;;18.80;99.90;;;;;;4910283;29;20462;-82
2023/06/07 07:05:43;;;;;;;18.00;17.20;;;18.90;99.90;;;;;;4910679;29;20498;-83
2023/06/07 07:08:12;;;;;;;18.57;17.87;;;18.90;99.90;;;;;;4915959;29;20637;-83
2023/06/07 07:10:40;;;;;;;17.73;17.10;;;19.00;99.90;;;;;;4909599;29;20588;-82
2023/06/07 07:13:08;;;;;;;18.27;17.47;;;19.00;99.90;;;;;;4909909;29;20973;-81
2023/06/07 07:15:36;;;;;;;17.70;17.00;;;19.00;99.90;;;;;;4909997;29;20652;-82
2023/06/07 07:18:07;;;;;;;18.13;17.30;;;19.10;99.90;;;;;;4908727;29;20467;-82
2023/06/07 07:20:36;;;;;;;17.47;16.87;;;19.20;99.90;;;;;;4910147;29;20564;-83
2023/06/07 07:23:04;;;;;;;17.77;17.07;;;19.30;99.90;;;;;;4908823;29;20545;-82
2023/06/07 07:25:32;;;;;;;16.47;15.97;;;19.30;99.90;;;;;;4909599;29;20573;-83
2023/06/07 07:28:00;;;;;;;17.30;16.70;;;19.30;99.90;;;;;;4909626;29;20492;-83
2023/06/07 07:30:30;;;;;;;17.10;16.27;;;19.30;99.90;;;;;;4907899;29;20470;-84
2023/06/07 07:33:00;;;;;;;17.20;16.60;;;19.40;99.90;;;;;;4908805;29;20597;-82
2023/06/07 07:35:30;;;;;;;17.40;16.80;;;19.50;99.90;;;;;;4908191;29;20533;-83
2023/06/07 07:38:00;;;;;;;18.03;17.33;;;19.50;99.90;;;;;;4907173;29;20469;-83
2023/06/07 07:40:29;;;;;;;17.27;16.57;;;19.50;99.90;;;;;;4909448;29;20472;-83
2023/06/07 07:42:57;;;;;;;16.93;16.33;;;19.60;99.90;;;;;;4910810;29;20473;-82
2023/06/07 07:45:26;;;;;;;16.33;15.73;;;19.60;99.90;;;;;;4909866;29;20559;-82
2023/06/07 07:47:54;;;;;;;16.47;15.97;;;19.70;99.90;;;;;;4909058;29;20493;-83
2023/06/07 07:50:22;;;;;;;16.70;16.10;;;19.60;99.90;;;;;;4910036;29;20465;-82
2023/06/07 07:52:53;;;;;;;17.30;16.60;;;19.70;99.90;;;;;;4909917;29;21022;-83
2023/06/07 07:55:23;;;;;;;17.37;16.77;;;19.70;99.90;;;;;;4907262;29;20479;-82
2023/06/07 07:57:51;;;;;;;16.70;16.20;;;19.80;99.90;;;;;;4908918;29;20795;-82
2023/06/07 08:00:20;;;;;;;16.50;15.90;;;19.80;99.90;;;;;;4908047;29;20461;-83
2023/06/07 08:02:49;;;;;;;17.00;16.40;;;19.90;99.90;;;;;;4910326;29;20469;-83
2023/06/07 08:05:17;;;;;;;16.90;16.30;;;19.90;99.90;;;;;;4910221;29;20478;-82
2023/06/07 08:07:45;;;;;;;17.20;16.60;;;20.00;99.90;;;;;;4908425;29;20569;-83
2023/06/07 08:10:15;;;;;;;17.67;16.70;;;20.00;99.90;;;;;;4907786;29;21024;-82
2023/06/07 08:12:43;;;;;;;17.03;16.40;;;20.10;99.90;;;;;;4909265;29;20465;-83
2023/06/07 08:15:11;;;;;;;16.83;16.33;;;20.20;99.90;;;;;;4908324;29;21026;-83
2023/06/07 08:17:40;;;;;;;17.50;16.80;;;20.20;99.90;;;;;;4910273;29;20498;-83
2023/06/07 08:20:09;;;;;;;18.30;17.50;;;20.20;99.90;;;;;;4910730;29;20465;-82
2023/06/07 08:22:38;;;;;;;17.63;16.93;;;20.30;99.90;;;;;;4910672;29;20485;-84
2023/06/07 08:25:07;;;;;;;18.00;17.30;;;20.30;99.90;;;;;;4910594;29;20481;-82
2023/06/07 08:27:37;;;;;;;18.37;17.53;;;20.40;99.90;;;;;;4908685;29;20462;-83
2023/06/07 08:30:07;;;;;;;17.73;17.13;;;20.40;99.90;;;;;;4909090;29;20592;-84
2023/06/07 08:32:36;;;;;;;17.47;16.87;;;20.50;99.90;;;;;;4922597;29;20552;-83
2023/06/07 08:35:04;;;;;;;18.03;17.30;;;20.40;99.90;;;;;;4908873;29;21029;-83
2023/06/07 08:37:32;;;;;;;17.27;16.67;;;20.50;99.90;;;;;;4908941;29;20471;-82
2023/06/07 08:40:01;;;;;;;18.40;17.77;;;20.50;99.90;;;;;;4910410;29;20461;-83
2023/06/07 08:42:29;;;;;;;17.80;17.30;;;20.60;99.90;;;;;;4909327;29;20476;-82
2023/06/07 08:44:59;;;;;;;18.27;17.57;;;20.70;99.90;;;;;;4909413;29;20499;-84
2023/06/07 08:47:29;;;;;;;18.90;18.30;;;20.70;99.90;;;;;;4909297;29;21037;-83
2023/06/07 08:49:58;;;;;;;19.03;18.23;;;20.90;99.90;;;;;;4908996;29;20512;-81
2023/06/07 08:52:26;;;;;;;18.70;18.00;;;20.90;99.90;;;;;;4924759;29;20458;-83
2023/06/07 08:54:58;;;;;;;18.07;17.37;;;21.00;99.90;;;;;;4900175;29;20489;-82
2023/06/07 08:57:28;;;;;;;18.13;17.53;;;21.10;99.90;;;;;;4909542;29;20856;-81
2023/06/07 08:59:57;;;;;;;17.70;17.10;;;21.10;99.90;;;;;;4906787;29;20516;-83
2023/06/07 09:02:27;;;;;;;18.20;17.60;;;21.10;99.90;;;;;;4908950;29;20481;-82
2023/06/07 09:04:55;;;;;;;18.53;17.73;;;21.10;99.90;;;;;;4905436;29;20487;-82
2023/06/07 09:07:24;;;;;;;18.70;18.10;;;21.10;99.90;;;;;;4907750;29;20986;-83
2023/06/07 09:09:52;;;;;;;18.30;17.70;;;21.10;99.90;;;;;;4910371;29;20481;-80
2023/06/07 09:12:20;;;;;;;18.93;17.93;;;21.20;99.90;;;;;;4910534;29;20830;-83
2023/06/07 09:14:49;;;;;;;18.67;17.97;;;21.20;99.90;;;;;;4909777;29;20482;-83
2023/06/07 09:17:17;;;;;;;20.00;19.10;;;21.20;99.90;;;;;;4909489;29;20606;-82
2023/06/07 09:19:46;;;;;;;18.63;17.93;;;21.30;99.90;;;;;;4908480;29;20970;-83
2023/06/07 09:22:17;;;;;;;18.10;17.40;;;21.30;99.90;;;;;;4909195;29;20469;-83
2023/06/07 09:24:46;;;;;;;17.80;17.30;;;21.50;99.90;;;;;;4909156;29;20500;-83
2023/06/07 09:27:14;;;;;;;18.30;17.70;;;21.50;99.90;;;;;;4924108;29;20469;-82
2023/06/07 09:29:45;;;;;;;18.20;17.60;;;21.70;99.90;;;;;;4907627;29;21073;-84
2023/06/07 09:32:20;;;;;;;18.13;17.43;;;21.70;99.90;;;;;;4909642;29;20527;-82
2023/06/07 09:34:52;;;;;;;17.87;17.17;;;21.70;99.90;;;;;;4907721;29;21085;-83
2023/06/07 09:37:21;;;;;;;18.20;17.50;;;21.70;99.90;;;;;;4909629;29;20525;-82
2023/06/07 09:39:52;;;;;;;18.30;17.50;;;21.80;99.90;;;;;;4908012;29;20927;-82
2023/06/07 09:42:28;;;;;;;18.17;17.37;;;21.70;99.90;;;;;;4908830;29;20512;-82
2023/06/07 09:45:10;;;;;;;17.60;17.10;;;21.70;99.90;;;;;;4909137;29;20549;-82
2023/06/07 09:47:38;;;;;;;18.50;17.80;;;21.70;99.90;;;;;;4907695;29;20458;-82
2023/06/07 09:50:09;;;;;;;18.13;17.53;;;21.60;99.90;;;;;;4907576;29;20520;-82
2023/06/07 09:52:38;;;;;;;18.23;17.63;;;21.50;99.90;;;;;;4906050;29;20456;-82
2023/06/07 09:55:07;;;;;;;18.20;17.50;;;21.60;99.90;;;;;;4902756;29;20486;-83
2023/06/07 09:57:38;;;;;;;18.30;17.60;;;21.60;99.90;;;;;;4907925;29;20466;-83
2023/06/07 10:00:10;;;;;;;18.77;17.87;;;21.70;99.90;;;;;;4911963;29;20893;-83
2023/06/07 10:02:39;;;;;;;18.10;17.40;;;21.80;99.90;;;;;;4913043;29;20456;-83
2023/06/07 10:05:09;;;;;;;18.33;17.50;;;21.90;99.90;;;;;;4911215;29;20832;-82
2023/06/07 10:07:40;;;;;;;17.40;16.60;;;22.00;99.90;;;;;;4911504;29;20465;-84
2023/06/07 10:10:11;;;;;;;16.80;16.20;;;22.00;99.90;;;;;;4911948;29;21062;-84
2023/06/07 10:12:41;;;;;;;17.30;16.60;;;22.10;99.90;;;;;;4911570;29;20488;-84
2023/06/07 10:15:11;;;;;;;17.50;16.70;;;22.20;99.90;;;;;;4903928;29;20501;-84
2023/06/07 10:17:48;;;;;;;17.90;17.20;;;22.20;99.90;;;;;;4910371;29;20896;-84
2023/06/07 10:20:24;;;;;;;16.63;16.13;;;22.20;99.90;;;;;;4911862;29;20467;-84
2023/06/07 10:22:59;;;;;;;17.10;16.50;;;22.20;99.90;;;;;;4912023;29;20441;-84
2023/06/07 10:25:31;;;;;;;17.30;16.70;;;22.30;99.90;;;;;;4911082;29;20493;-83
2023/06/07 10:28:20;;;;;;;17.07;16.20;;;22.40;99.90;;;;;;4912938;29;20478;-83
2023/06/07 10:30:53;;;;;;;17.43;16.83;;;22.50;99.90;;;;;;4910153;29;20488;-83
2023/06/07 10:33:24;;;;;;;16.97;16.37;;;22.50;99.90;;;;;;4912612;29;20512;-84
2023/06/07 10:35:54;;;;;;;16.30;15.80;;;22.60;99.90;;;;;;4912384;29;20530;-83
2023/06/07 10:38:24;;;;;;;16.47;15.93;;;22.70;99.90;;;;;;4913301;29;20493;-84
2023/06/07 10:40:53;;;;;;;15.87;15.30;;;22.70;99.90;;;;;;4913027;29;20513;-84
2023/06/07 10:43:21;;;;;;;15.37;14.87;;;22.60;99.90;;;;;;4912097;29;20466;-83
2023/06/07 10:46:20;;;;;;;15.73;15.20;;;22.40;99.90;;;;;;4911463;29;20537;-84
2023/06/07 10:48:48;;;;;;;15.60;14.83;;;22.30;99.90;;;;;;4910846;29;20478;-85
2023/06/07 10:51:19;;;;;;;16.50;15.80;;;22.40;99.90;;;;;;4912622;29;20469;-84
2023/06/07 10:53:52;;;;;;;15.83;15.23;;;22.40;99.90;;;;;;4927062;29;21051;-83
2023/06/07 10:56:32;;;;;;;15.83;15.33;;;22.40;99.90;;;;;;4912111;29;20482;-85
2023/06/07 10:59:22;;;;;;;15.90;15.30;;;22.40;99.90;;;;;;4911364;29;20458;-86
2023/06/07 11:01:52;;;;;;;16.10;15.50;;;22.50;99.90;;;;;;4909947;29;20834;-83
2023/06/07 11:04:56;;;;;;;15.23;14.73;;;22.50;99.90;;;;;;4910891;29;20810;-85
2023/06/07 11:07:30;;;;;;;15.60;14.90;;;22.50;99.90;;;;;;4926542;29;20521;-84
2023/06/07 11:10:35;;;;;;;14.87;14.37;;;22.50;99.90;;;;;;4911003;29;20487;-84
2023/06/07 11:13:04;;;;;;;14.70;14.20;;;22.60;99.90;;;;;;4910165;29;20460;-83
2023/06/07 11:15:35;;;;;;;14.93;14.43;;;22.70;99.90;;;;;;4910609;29;20484;-83
2023/06/07 11:18:07;;;;;;;14.40;14.00;;;22.80;99.90;;;;;;4909602;29;20465;-84
2023/06/07 11:20:53;;;;;;;14.80;14.30;;;22.60;99.90;;;;;;4910374;29;20544;-85
2023/06/07 11:23:30;;;;;;;15.73;15.13;;;22.70;99.90;;;;;;4924430;29;20469;-84
2023/06/07 11:26:00;;;;;;;15.60;15.10;;;22.80;99.90;;;;;;4910961;29;20540;-83
2023/06/07 11:28:31;;;;;;;15.70;14.80;;;23.00;99.90;;;;;;4901780;29;20942;-85
2023/06/07 11:31:00;;;;;;;15.10;14.70;;;23.10;99.90;;;;;;4910486;29;20502;-84
2023/06/07 11:33:30;;;;;;;15.77;15.17;;;23.20;99.90;;;;;;4910618;29;20679;-83
2023/06/07 11:35:58;;;;;;;16.10;15.60;;;23.20;99.90;;;;;;4910363;29;20484;-83
2023/06/07 11:38:28;;;;;;;16.13;15.43;;;23.20;99.90;;;;;;4924395;29;20987;-84
2023/06/07 11:40:57;;;;;;;15.20;14.60;;;23.10;99.90;;;;;;4909577;29;20545;-84
2023/06/07 11:43:27;;;;;;;15.47;14.97;;;23.10;99.90;;;;;;4908776;29;21206;-84
2023/06/07 11:45:57;;;;;;;15.50;15.00;;;23.20;99.90;;;;;;4910281;29;20476;-84
2023/06/07 11:48:29;;;;;;;15.10;14.70;;;23.10;99.90;;;;;;4910267;29;20846;-83
2023/06/07 11:50:57;;;;;;;15.90;15.40;;;23.20;99.90;;;;;;4910427;29;20568;-84
2023/06/07 11:53:28;;;;;;;16.37;15.87;;;23.30;99.90;;;;;;4910413;29;20564;-84
2023/06/07 11:55:59;;;;;;;15.63;15.23;;;23.30;99.90;;;;;;4911387;29;20597;-83
2023/06/07 11:58:27;;;;;;;15.13;14.70;;;23.30;99.90;;;;;;4910394;29;20493;-84
2023/06/07 12:00:57;;;;;;;16.10;15.50;;;23.20;99.90;;;;;;4909557;29;20493;-86
2023/06/07 12:03:26;;;;;;;15.47;14.97;;;23.20;99.90;;;;;;4910852;29;20598;-83
2023/06/07 12:05:56;;;;;;;15.60;15.20;;;23.20;99.90;;;;;;4907977;29;20750;-83
2023/06/07 12:08:29;;;;;;;14.80;14.40;;;23.20;99.90;;;;;;4908276;29;20453;-84
2023/06/07 12:11:00;;;;;;;15.10;14.60;;;23.10;99.90;;;;;;4908139;29;20487;-84
2023/06/07 12:13:31;;;;;;;15.17;14.73;;;23.10;99.90;;;;;;4911116;29;20705;-84
2023/06/07 12:16:00;;;;;;;15.07;14.60;;;23.10;99.90;;;;;;4910075;29;20621;-85
2023/06/07 12:18:30;;;;;;;14.70;14.27;;;23.20;99.90;;;;;;4902683;29;20465;-83
2023/06/07 12:21:03;;;;;;;14.83;14.40;;;23.30;99.90;;;;;;4909210;29;20442;-84
2023/06/07 12:23:32;;;;;;;15.77;15.20;;;23.20;99.90;;;;;;4909657;29;20798;-83
2023/06/07 12:26:09;;;;;;;15.90;15.20;;;23.20;99.90;;;;;;4909620;29;20485;-84
2023/06/07 12:28:39;;;;;;;15.40;15.00;;;23.30;99.90;;;;;;4911689;29;21014;-82
2023/06/07 12:31:16;;;;;;;15.20;14.60;;;23.30;99.90;;;;;;4910552;29;21154;-82
2023/06/07 12:33:54;;;;;;;15.30;14.90;;;23.30;99.90;;;;;;4909387;29;20556;-83
2023/06/07 12:36:24;;;;;;;15.73;15.33;;;23.40;99.90;;;;;;4909671;29;20481;-82
2023/06/07 12:38:52;;;;;;;14.90;14.50;;;23.30;99.90;;;;;;4907733;29;20455;-80
2023/06/07 12:41:27;;;;;;;15.80;15.23;;;23.40;99.90;;;;;;4910148;29;21006;-82
2023/06/07 12:43:56;;;;;;;15.30;14.80;;;23.50;99.90;;;;;;4910298;29;20517;-81